createdAt,value
2022-11-15T00:00:28.331Z,9.73
2022-11-15T00:03:18.212Z,9.50
2022-11-15T00:06:05.652Z,9.85
2022-11-15T00:08:51.713Z,9.27
2022-11-15T00:11:37.337Z,9.20
2022-11-15T00:14:23.775Z,8.13
2022-11-15T00:17:09.285Z,8.93
2022-11-15T00:19:54.952Z,8.23
2022-11-15T00:22:40.456Z,8.98
2022-11-15T00:25:26.006Z,8.15
2022-11-15T00:28:11.534Z,9.48
2022-11-15T00:31:05.165Z,8.73
2022-11-15T00:33:50.630Z,8.68
2022-11-15T00:36:36.468Z,9.43
2022-11-15T00:39:21.672Z,9.23
2022-11-15T00:42:09.448Z,8.73
2022-11-15T00:44:54.814Z,7.88
2022-11-15T00:47:40.199Z,9.02
2022-11-15T00:50:25.852Z,7.30
2022-11-15T00:53:12.328Z,7.95
2022-11-15T00:55:58.015Z,9.93
2022-11-15T00:58:43.476Z,7.88
2022-11-15T01:01:29.190Z,7.70
2022-11-15T01:04:14.993Z,7.63
2022-11-15T01:07:00.284Z,7.07
2022-11-15T01:09:45.831Z,8.07
2022-11-15T01:12:31.333Z,7.60
2022-11-15T01:15:19.092Z,6.70
2022-11-15T01:18:04.626Z,6.57
2022-11-15T01:20:50.259Z,7.55
2022-11-15T01:23:36.340Z,6.05
2022-11-15T01:26:24.790Z,6.95
2022-11-15T01:29:10.000Z,6.28
2022-11-15T01:31:55.653Z,7.50
2022-11-15T01:34:41.394Z,7.32
2022-11-15T01:37:26.844Z,5.78
2022-11-15T01:40:12.651Z,7.05
2022-11-15T01:42:58.178Z,6.75
2022-11-15T01:45:44.550Z,7.13
2022-11-15T01:48:34.247Z,5.38
2022-11-15T01:51:22.797Z,7.30
2022-11-15T01:54:19.048Z,6.57
2022-11-15T01:57:08.967Z,5.90
2022-11-15T02:00:05.089Z,5.93
2022-11-15T02:02:52.437Z,5.82
2022-11-15T02:05:38.907Z,5.60
2022-11-15T02:08:24.247Z,5.97
2022-11-15T02:11:10.160Z,4.70
2022-11-15T02:13:57.551Z,6.85
2022-11-15T02:17:04.845Z,5.85
2022-11-15T02:20:22.352Z,6.55
2022-11-15T02:23:46.977Z,5.47
2022-11-15T02:26:50.821Z,5.43
2022-11-15T02:29:58.589Z,5.07
2022-11-15T02:32:53.875Z,4.88
2022-11-15T02:35:59.421Z,5.63
2022-11-15T02:39:09.729Z,4.63
2022-11-15T02:41:58.508Z,5.80
2022-11-15T02:44:46.814Z,4.65
2022-11-15T02:47:36.725Z,5.68
2022-11-15T02:50:28.089Z,5.25
2022-11-15T02:53:15.969Z,5.75
2022-11-15T02:56:01.536Z,4.72
2022-11-15T02:59:11.710Z,5.03
2022-11-15T03:02:27.578Z,5.50
2022-11-15T03:05:54.249Z,3.92
2022-11-15T03:09:04.082Z,5.15
2022-11-15T03:11:56.882Z,5.50
2022-11-15T03:15:07.443Z,5.03
2022-11-15T03:17:56.731Z,5.45
2022-11-15T03:20:44.021Z,4.63
2022-11-15T03:23:32.409Z,4.43
2022-11-15T03:26:22.226Z,4.43
2022-11-15T03:29:19.258Z,4.60
2022-11-15T03:32:39.353Z,4.85
2022-11-15T03:35:36.121Z,4.93
2022-11-15T03:38:32.912Z,4.28
2022-11-15T03:41:26.895Z,6.13
2022-11-15T03:44:22.130Z,5.72
2022-11-15T03:47:26.506Z,4.78
2022-11-15T03:50:30.576Z,4.07
2022-11-15T03:53:17.053Z,4.32
2022-11-15T03:56:02.720Z,3.88
2022-11-15T03:58:48.241Z,4.40
2022-11-15T04:01:35.073Z,3.28
2022-11-15T04:04:20.570Z,3.65
2022-11-15T04:07:06.542Z,3.53
2022-11-15T04:10:03.743Z,3.88
2022-11-15T04:12:48.993Z,3.80
2022-11-15T04:15:36.081Z,3.38
2022-11-15T04:18:21.602Z,3.42
2022-11-15T04:21:28.343Z,3.53
2022-11-15T04:24:13.684Z,2.85
2022-11-15T04:26:59.203Z,3.53
2022-11-15T04:29:44.515Z,3.65
2022-11-15T04:32:30.085Z,3.05
2022-11-15T04:35:17.758Z,3.45
2022-11-15T04:38:04.827Z,3.95
2022-11-15T04:40:50.324Z,3.10
2022-11-15T04:43:36.056Z,3.38
2022-11-15T04:46:22.885Z,2.90
2022-11-15T04:49:08.114Z,3.95
2022-11-15T04:51:53.701Z,2.85
2022-11-15T04:54:40.514Z,3.50
2022-11-15T04:57:27.076Z,4.55
2022-11-15T05:00:16.730Z,2.58
2022-11-15T05:03:20.809Z,3.38
2022-11-15T05:06:06.963Z,3.50
2022-11-15T05:08:52.165Z,3.15
2022-11-15T05:11:37.723Z,3.75
2022-11-15T05:14:23.172Z,2.88
2022-11-15T05:17:08.669Z,3.17
2022-11-15T05:19:54.207Z,3.13
2022-11-15T05:22:40.388Z,3.47
2022-11-15T05:25:25.813Z,3.05
2022-11-15T05:28:11.278Z,2.42
2022-11-15T05:31:03.577Z,3.22
2022-11-15T05:33:50.664Z,3.00
2022-11-15T05:36:39.740Z,2.70
2022-11-15T05:39:26.852Z,2.63
2022-11-15T05:42:14.649Z,2.70
2022-11-15T05:45:03.001Z,3.55
2022-11-15T05:47:50.843Z,2.72
2022-11-15T05:50:39.103Z,2.70
2022-11-15T05:53:25.956Z,3.03
2022-11-15T05:56:12.233Z,2.45
2022-11-15T05:58:59.987Z,2.50
2022-11-15T06:01:45.506Z,3.28
2022-11-15T06:04:31.254Z,2.88
2022-11-15T06:07:17.008Z,2.90
2022-11-15T06:10:02.598Z,1.95
2022-11-15T06:12:48.046Z,3.33
2022-11-15T06:15:37.299Z,2.45
2022-11-15T06:18:22.284Z,2.20
2022-11-15T06:21:07.775Z,1.88
2022-11-15T06:23:53.421Z,2.03
2022-11-15T06:26:38.880Z,2.53
2022-11-15T06:29:24.335Z,1.95
2022-11-15T06:32:10.735Z,2.10
2022-11-15T06:34:56.076Z,1.95
2022-11-15T06:37:42.081Z,2.00
2022-11-15T06:40:27.611Z,2.15
2022-11-15T06:43:13.147Z,1.88
2022-11-15T06:46:02.745Z,2.13
2022-11-15T06:48:48.683Z,2.05
2022-11-15T06:51:34.307Z,3.05
2022-11-15T06:54:19.748Z,2.90
2022-11-15T06:57:06.069Z,3.08
2022-11-15T06:59:51.236Z,2.92
2022-11-15T07:02:36.714Z,3.50
2022-11-15T07:05:22.373Z,5.63
2022-11-15T07:08:07.597Z,3.67
2022-11-15T07:10:53.748Z,4.80
2022-11-15T07:13:39.405Z,3.92
2022-11-15T07:16:24.948Z,4.18
2022-11-15T07:19:11.026Z,5.25
2022-11-15T07:21:56.256Z,3.63
2022-11-15T07:24:41.798Z,3.72
2022-11-15T07:27:27.377Z,2.63
2022-11-15T07:30:15.549Z,3.13
2022-11-15T07:33:01.749Z,3.03
2022-11-15T07:35:50.474Z,2.90
2022-11-15T07:38:41.233Z,2.88
2022-11-15T07:41:27.827Z,2.50
2022-11-15T07:44:13.338Z,3.20
2022-11-15T07:46:59.257Z,3.72
2022-11-15T07:49:44.933Z,3.28
2022-11-15T07:52:30.388Z,6.03
2022-11-15T07:55:15.859Z,2.42
2022-11-15T07:58:03.503Z,3.13
2022-11-15T08:00:49.314Z,2.53
2022-11-15T08:03:35.358Z,3.67
2022-11-15T08:06:20.714Z,2.42
2022-11-15T08:09:06.050Z,2.58
2022-11-15T08:11:51.479Z,2.53
2022-11-15T08:14:37.168Z,2.33
2022-11-15T08:17:22.942Z,2.42
2022-11-15T08:20:09.049Z,2.28
2022-11-15T08:22:54.596Z,1.90
2022-11-15T08:25:41.625Z,2.40
2022-11-15T08:28:27.177Z,1.80
2022-11-15T08:31:18.439Z,1.67
2022-11-15T08:34:07.481Z,2.08
2022-11-15T08:36:52.603Z,1.90
2022-11-15T08:39:39.600Z,2.08
2022-11-15T08:42:24.650Z,1.63
2022-11-15T08:45:10.603Z,2.30
2022-11-15T08:47:56.282Z,1.70
2022-11-15T08:50:41.948Z,1.75
2022-11-15T08:53:28.003Z,1.67
2022-11-15T08:56:15.331Z,1.85
2022-11-15T08:59:00.541Z,1.40
2022-11-15T09:01:46.289Z,1.65
2022-11-15T09:04:31.682Z,1.40
2022-11-15T09:07:17.584Z,1.50
2022-11-15T09:10:03.744Z,1.67
2022-11-15T09:12:49.519Z,1.25
2022-11-15T09:15:35.058Z,1.45
2022-11-15T09:18:23.378Z,1.50
2022-11-15T09:21:09.985Z,1.15
2022-11-15T09:23:55.522Z,1.83
2022-11-15T09:26:41.467Z,1.85
2022-11-15T09:29:27.119Z,1.00
2022-11-15T09:32:12.824Z,1.83
2022-11-15T09:34:58.817Z,1.35
2022-11-15T09:37:44.474Z,1.42
2022-11-15T09:40:32.235Z,1.42
2022-11-15T09:43:31.798Z,1.02
2022-11-15T09:46:44.760Z,0.95
2022-11-15T09:49:31.696Z,0.77
2022-11-15T09:52:28.944Z,0.77
2022-11-15T09:54:56.470Z,1.00
2022-11-15T09:57:38.633Z,0.40
2022-11-15T10:00:43.894Z,0.95
2022-11-15T10:03:17.235Z,1.20
2022-11-15T10:05:46.925Z,0.95
2022-11-15T10:08:44.816Z,1.42
2022-11-15T10:11:36.568Z,1.23
2022-11-15T10:14:09.594Z,0.95
2022-11-15T10:16:57.995Z,1.48
2022-11-15T10:19:42.276Z,0.80
2022-11-15T10:22:27.537Z,0.88
2022-11-15T10:25:23.301Z,0.60
2022-11-15T10:27:59.455Z,0.47
2022-11-15T10:30:36.107Z,8.20
2022-11-15T10:33:30.351Z,1.58
2022-11-15T10:38:51.173Z,1.42
2022-11-15T10:41:23.925Z,0.75
2022-11-15T10:44:17.951Z,0.57
2022-11-15T10:46:49.487Z,1.45
2022-11-15T10:49:21.777Z,0.60
2022-11-15T10:51:55.061Z,0.95
2022-11-15T10:54:35.735Z,0.75
2022-11-15T10:57:13.007Z,0.88
2022-11-15T10:59:43.622Z,0.60
2022-11-15T11:02:30.209Z,0.75
2022-11-15T11:04:57.731Z,0.60
2022-11-15T11:07:28.062Z,0.88
2022-11-15T11:10:00.984Z,0.63
2022-11-15T11:12:32.529Z,1.20
2022-11-15T11:15:03.245Z,0.88
2022-11-15T11:17:42.793Z,1.23
2022-11-15T11:20:34.967Z,1.02
2022-11-15T11:23:14.682Z,1.70
2022-11-15T11:26:09.034Z,1.40
2022-11-15T11:29:00.212Z,0.60
2022-11-15T11:31:38.313Z,1.08
2022-11-15T11:34:32.261Z,0.73
2022-11-15T11:37:18.697Z,0.77
2022-11-15T11:39:55.209Z,0.60
2022-11-15T11:42:38.855Z,0.60
2022-11-15T11:45:20.827Z,0.68
2022-11-15T11:48:13.940Z,0.80
2022-11-15T11:50:43.221Z,0.80
2022-11-15T11:53:16.324Z,0.60
2022-11-15T11:55:48.474Z,1.02
2022-11-15T11:58:36.880Z,0.80
2022-11-15T12:01:23.074Z,1.05
2022-11-15T12:04:02.365Z,0.73
2022-11-15T12:06:50.383Z,0.65
2022-11-15T12:09:29.225Z,0.55
2022-11-15T12:12:19.740Z,0.75
2022-11-15T12:15:25.449Z,0.40
2022-11-15T12:17:53.871Z,1.25
2022-11-15T12:20:24.211Z,0.98
2022-11-15T12:22:59.854Z,0.73
2022-11-15T12:25:41.463Z,0.93
2022-11-15T12:28:27.037Z,0.60
2022-11-15T12:31:20.746Z,0.82
2022-11-15T12:33:49.286Z,0.60
2022-11-15T12:36:21.954Z,0.60
2022-11-15T12:38:57.038Z,1.08
2022-11-15T12:41:29.829Z,0.75
2022-11-15T12:43:57.182Z,0.80
2022-11-15T12:46:46.863Z,0.95
2022-11-15T12:49:28.941Z,0.80
2022-11-15T12:51:58.478Z,0.93
2022-11-15T12:54:25.284Z,0.93
2022-11-15T12:57:04.127Z,0.63
2022-11-15T12:59:50.594Z,1.77
2022-11-15T13:02:33.702Z,0.70
2022-11-15T13:05:21.381Z,1.17
2022-11-15T13:07:48.114Z,0.50
2022-11-15T13:10:14.717Z,2.28
2022-11-15T13:12:47.431Z,1.83
2022-11-15T13:15:14.084Z,1.80
2022-11-15T13:17:48.871Z,1.80
2022-11-15T13:20:15.739Z,1.02
2022-11-15T13:23:16.376Z,0.98
2022-11-15T13:26:13.826Z,1.02
2022-11-15T13:28:50.370Z,1.00
2022-11-15T13:31:31.271Z,0.90
2022-11-15T13:34:36.582Z,1.10
2022-11-15T13:37:02.206Z,1.73
2022-11-15T13:39:31.776Z,1.35
2022-11-15T13:41:59.661Z,0.63
2022-11-15T13:44:32.332Z,1.20
2022-11-15T13:47:29.755Z,0.60
2022-11-15T13:50:01.992Z,0.40
2022-11-15T13:52:37.247Z,0.65
2022-11-15T13:55:12.437Z,0.70
2022-11-15T13:58:01.352Z,0.63
2022-11-15T14:00:36.531Z,2.10
2022-11-15T14:03:24.943Z,1.60
2022-11-15T14:06:08.499Z,0.85
2022-11-15T14:08:36.601Z,0.80
2022-11-15T14:11:20.753Z,0.93
2022-11-15T14:14:09.263Z,0.60
2022-11-15T14:16:39.019Z,0.70
2022-11-15T14:19:07.777Z,0.88
2022-11-15T14:21:34.567Z,1.20
2022-11-15T14:24:21.912Z,0.85
2022-11-15T14:26:49.427Z,0.57
2022-11-15T14:29:29.763Z,1.27
2022-11-15T14:32:44.211Z,1.88
2022-11-15T14:35:17.897Z,1.70
2022-11-15T14:40:15.033Z,1.75
2022-11-15T14:42:42.239Z,2.60
2022-11-15T14:45:17.860Z,1.55
2022-11-15T14:47:45.493Z,1.48
2022-11-15T14:50:14.062Z,0.80
2022-11-15T14:52:43.183Z,1.10
2022-11-15T14:55:24.263Z,1.13
2022-11-15T14:57:51.898Z,0.73
2022-11-15T15:00:18.792Z,0.98
2022-11-15T15:02:47.123Z,0.75
2022-11-15T15:05:20.956Z,1.25
2022-11-15T15:07:48.520Z,1.00
2022-11-15T15:13:04.261Z,0.93
2022-11-15T15:15:37.655Z,0.85
2022-11-15T15:18:09.352Z,0.95
2022-11-15T15:20:38.947Z,1.17
2022-11-15T15:23:05.932Z,1.33
2022-11-15T15:25:35.637Z,1.35
2022-11-15T15:28:03.096Z,1.55
2022-11-15T15:30:31.455Z,1.90
2022-11-15T15:32:58.455Z,1.17
2022-11-15T15:35:31.033Z,1.02
2022-11-15T15:37:57.748Z,1.88
2022-11-15T15:40:25.900Z,2.47
2022-11-15T15:42:52.680Z,9.85
2022-11-15T15:45:22.554Z,3.20
2022-11-15T15:47:50.935Z,1.08
2022-11-15T15:50:27.738Z,1.08
2022-11-15T15:52:58.055Z,1.90
2022-11-15T15:55:25.281Z,1.75
2022-11-15T15:57:52.448Z,0.90
2022-11-15T16:00:20.757Z,2.33
2022-11-15T16:02:47.688Z,2.20
2022-11-15T16:05:14.666Z,3.88
2022-11-15T16:07:43.939Z,6.45
2022-11-15T16:10:28.174Z,6.82
2022-11-15T16:12:56.981Z,4.53
2022-11-15T16:15:25.789Z,12.57
2022-11-15T16:17:58.455Z,6.88
2022-11-15T16:20:43.215Z,7.68
2022-11-15T16:23:15.544Z,8.38
2022-11-15T16:25:56.411Z,3.95
2022-11-15T16:28:31.666Z,3.20
2022-11-15T16:31:12.838Z,1.63
2022-11-15T16:33:40.621Z,2.22
2022-11-15T16:36:23.311Z,1.60
2022-11-15T16:38:53.783Z,1.58
2022-11-15T16:41:21.591Z,1.27
2022-11-15T16:43:49.223Z,7.63
2022-11-15T16:46:22.524Z,7.25
2022-11-15T16:48:49.841Z,1.55
2022-11-15T16:51:17.481Z,2.20
2022-11-15T16:53:44.805Z,1.20
2022-11-15T16:56:29.109Z,2.15
2022-11-15T16:59:00.377Z,1.60
2022-11-15T17:01:28.403Z,2.05
2022-11-15T17:03:56.014Z,1.70
2022-11-15T17:06:23.685Z,1.40
2022-11-15T17:08:50.422Z,2.20
2022-11-15T17:11:22.045Z,1.50
2022-11-15T17:13:49.986Z,1.25
2022-11-15T17:16:18.274Z,1.80
2022-11-15T17:18:45.642Z,4.22
2022-11-15T17:21:15.316Z,4.22
2022-11-15T17:23:43.058Z,3.33
2022-11-15T17:26:32.000Z,2.70
2022-11-15T17:29:01.516Z,1.92
2022-11-15T17:31:30.869Z,2.88
2022-11-15T17:33:57.622Z,2.45
2022-11-15T17:36:24.428Z,3.55
2022-11-15T17:38:58.047Z,3.33
2022-11-15T17:41:28.320Z,3.90
2022-11-15T17:44:00.218Z,3.75
2022-11-15T17:46:36.979Z,4.28
2022-11-15T17:49:04.969Z,1.80
2022-11-15T17:51:33.256Z,2.15
2022-11-15T17:54:00.078Z,3.20
2022-11-15T17:56:29.582Z,3.53
2022-11-15T17:59:00.691Z,2.30
2022-11-15T18:01:31.166Z,2.28
2022-11-15T18:04:00.456Z,2.10
2022-11-15T18:06:30.457Z,2.22
2022-11-15T18:08:57.728Z,2.22
2022-11-15T18:11:33.071Z,2.22
2022-11-15T18:14:01.830Z,2.63
2022-11-15T18:16:31.026Z,2.22
2022-11-15T18:18:58.974Z,3.50
2022-11-15T18:21:30.953Z,2.30
2022-11-15T18:24:00.714Z,1.95
2022-11-15T18:26:29.513Z,1.85
2022-11-15T18:29:02.667Z,2.85
2022-11-15T18:31:50.471Z,2.33
2022-11-15T18:34:17.797Z,2.70
2022-11-15T18:36:45.338Z,1.92
2022-11-15T18:39:16.452Z,2.92
2022-11-15T18:41:46.896Z,3.53
2022-11-15T18:44:15.012Z,3.03
2022-11-15T18:46:42.661Z,2.88
2022-11-15T18:49:11.148Z,2.75
2022-11-15T18:51:41.907Z,2.90
2022-11-15T18:54:14.055Z,2.45
2022-11-15T18:56:41.477Z,2.45
2022-11-15T18:59:08.676Z,3.47
2022-11-15T19:01:37.926Z,3.17
2022-11-15T19:04:13.181Z,3.30
2022-11-15T19:06:42.315Z,2.58
2022-11-15T19:09:11.174Z,3.00
2022-11-15T19:11:39.610Z,2.15
2022-11-15T19:14:09.401Z,3.03
2022-11-15T19:16:45.467Z,3.13
2022-11-15T19:22:01.142Z,3.33
2022-11-15T19:24:29.874Z,2.72
2022-11-15T19:26:56.823Z,3.58
2022-11-15T19:29:23.699Z,2.70
2022-11-15T19:31:50.461Z,2.65
2022-11-15T19:34:18.121Z,3.72
2022-11-15T19:36:45.915Z,3.45
2022-11-15T19:39:15.298Z,3.22
2022-11-15T19:41:44.636Z,3.03
2022-11-15T19:44:13.081Z,3.38
2022-11-15T19:46:40.897Z,4.45
2022-11-15T19:49:10.429Z,2.13
2022-11-15T19:51:38.881Z,2.92
2022-11-15T19:54:09.703Z,3.00
2022-11-15T19:56:37.352Z,3.20
2022-11-15T19:59:05.961Z,3.83
2022-11-15T20:01:38.402Z,4.00
2022-11-15T20:04:06.187Z,3.50
2022-11-15T20:06:36.763Z,4.30
2022-11-15T20:09:04.141Z,4.82
2022-11-15T20:11:31.612Z,4.38
2022-11-15T20:14:02.271Z,4.20
2022-11-15T20:16:29.884Z,5.15
2022-11-15T20:18:57.361Z,3.00
2022-11-15T20:21:24.802Z,3.13
2022-11-15T20:23:51.891Z,2.70
2022-11-15T20:26:19.862Z,3.75
2022-11-15T20:28:48.106Z,3.10
2022-11-15T20:31:16.012Z,2.80
2022-11-15T20:33:44.290Z,2.45
2022-11-15T20:36:15.838Z,3.85
2022-11-15T20:38:43.779Z,2.80
2022-11-15T20:41:11.980Z,2.40
2022-11-15T20:43:38.956Z,3.05
2022-11-15T20:46:05.709Z,2.60
2022-11-15T20:48:33.675Z,2.58
2022-11-15T20:51:15.350Z,3.22
2022-11-15T20:53:46.255Z,2.80
2022-11-15T20:56:15.200Z,2.45
2022-11-15T20:58:43.364Z,2.42
2022-11-15T21:01:13.615Z,2.50
2022-11-15T21:03:41.256Z,2.90
2022-11-15T21:06:08.243Z,3.05
2022-11-15T21:08:53.888Z,2.47
2022-11-15T21:11:41.984Z,2.38
2022-11-15T21:14:10.038Z,3.35
2022-11-15T21:16:41.812Z,2.47
2022-11-15T21:19:10.305Z,2.13
2022-11-15T21:21:40.070Z,2.80
2022-11-15T21:24:11.588Z,2.13
2022-11-15T21:26:41.878Z,2.47
2022-11-15T21:29:16.955Z,2.22
2022-11-15T21:31:53.439Z,2.63
2022-11-15T21:34:46.270Z,2.08
2022-11-15T21:37:29.695Z,2.72
2022-11-15T21:39:58.409Z,2.67
2022-11-15T21:42:25.983Z,3.10
2022-11-15T21:44:54.279Z,2.67
2022-11-15T21:47:23.134Z,2.75
2022-11-15T21:49:49.982Z,2.78
2022-11-15T21:52:18.774Z,2.80
2022-11-15T21:54:48.280Z,2.67
2022-11-15T21:57:15.145Z,2.63
2022-11-15T22:00:02.317Z,3.13
2022-11-15T22:02:33.599Z,2.72
2022-11-15T22:05:01.423Z,2.95
2022-11-15T22:07:30.152Z,2.78
2022-11-15T22:09:58.846Z,3.03
2022-11-15T22:12:29.712Z,3.08
2022-11-15T22:14:57.859Z,2.33
2022-11-15T22:17:44.826Z,2.95
2022-11-15T22:23:02.972Z,2.30
2022-11-15T22:25:30.128Z,2.90
2022-11-15T22:27:58.611Z,3.20
2022-11-15T22:30:26.891Z,2.83
2022-11-15T22:32:54.037Z,2.95
2022-11-15T22:35:21.028Z,3.05
2022-11-15T22:37:48.916Z,3.30
2022-11-15T22:40:16.162Z,3.17
2022-11-15T22:42:43.590Z,2.38
2022-11-15T22:45:11.048Z,3.22
2022-11-15T22:47:38.151Z,2.55
2022-11-15T22:50:06.665Z,2.35
2022-11-15T22:52:34.107Z,2.97
2022-11-15T22:55:01.130Z,2.95
2022-11-15T22:57:28.064Z,3.00
2022-11-15T22:59:55.063Z,2.40
2022-11-15T23:02:22.009Z,2.67
2022-11-15T23:04:48.854Z,2.22
2022-11-15T23:07:15.848Z,2.45
2022-11-15T23:09:46.511Z,2.53
2022-11-15T23:12:36.083Z,3.05
2022-11-15T23:15:03.041Z,2.38
2022-11-15T23:17:31.364Z,2.67
2022-11-15T23:20:07.461Z,2.78
2022-11-15T23:22:48.878Z,2.85
2022-11-15T23:25:16.731Z,3.13
2022-11-15T23:27:44.642Z,3.13
2022-11-15T23:30:31.228Z,2.55
2022-11-15T23:33:16.790Z,3.05
2022-11-15T23:35:52.938Z,3.13
2022-11-15T23:38:19.621Z,2.38
2022-11-15T23:40:51.739Z,2.45
2022-11-15T23:43:20.546Z,2.50
2022-11-15T23:45:47.486Z,3.25
2022-11-15T23:48:15.346Z,2.33
2022-11-15T23:50:42.116Z,2.47
2022-11-15T23:53:09.008Z,2.08
2022-11-15T23:55:35.818Z,2.53
2022-11-15T23:58:02.607Z,3.03
